createdAt,value
2023-10-27T00:02:10.575Z,98592.16
2023-10-27T00:04:38.553Z,98591.09
2023-10-27T00:07:06.451Z,98594.88
2023-10-27T00:09:37.118Z,98591.69
2023-10-27T00:12:05.273Z,98584.47
2023-10-27T00:14:34.533Z,98597.59
2023-10-27T00:17:02.630Z,98588.13
2023-10-27T00:19:31.953Z,98590.44
2023-10-27T00:21:59.893Z,98580.84
2023-10-27T00:24:28.348Z,98588.13
2023-10-27T00:26:56.422Z,98585.41
2023-10-27T00:29:25.567Z,98596.09
2023-10-27T00:31:53.440Z,98580.88
2023-10-27T00:34:21.761Z,98583.44
2023-10-27T00:36:51.331Z,98578.78
2023-10-27T00:39:19.229Z,98574.53
2023-10-27T00:41:47.180Z,98571.81
2023-10-27T00:44:15.033Z,98569.56
2023-10-27T00:46:45.218Z,98571.47
2023-10-27T00:49:13.683Z,98566.94
2023-10-27T00:51:42.530Z,98568.34
2023-10-27T00:54:12.498Z,98565.16
2023-10-27T00:56:41.326Z,98572.28
2023-10-27T00:59:09.679Z,98572.19
2023-10-27T01:01:38.466Z,98569.84
2023-10-27T01:04:07.061Z,98558.38
2023-10-27T01:06:35.096Z,98561.88
2023-10-27T01:09:03.163Z,98536.69
2023-10-27T01:11:32.392Z,98558.56
2023-10-27T01:14:00.341Z,98555.31
2023-10-27T01:16:28.393Z,98546.34
2023-10-27T01:18:57.103Z,98545.88
2023-10-27T01:21:25.008Z,98553.25
2023-10-27T01:23:54.231Z,98538.28
2023-10-27T01:26:22.191Z,98550.09
2023-10-27T01:28:50.284Z,98559.78
2023-10-27T01:31:18.992Z,98553.91
2023-10-27T01:33:46.992Z,98550.56
2023-10-27T01:36:15.170Z,98559.53
2023-10-27T01:38:43.157Z,98549.38
2023-10-27T01:41:12.567Z,98548.16
2023-10-27T01:43:40.414Z,98555.63
2023-10-27T01:46:08.621Z,98545.88
2023-10-27T01:48:37.349Z,98541.53
2023-10-27T01:51:05.705Z,98546.28
2023-10-27T01:53:35.032Z,98539.88
2023-10-27T01:56:03.198Z,98549.22
2023-10-27T01:58:32.441Z,98547.69
2023-10-27T02:01:00.389Z,98550.28
2023-10-27T02:03:28.388Z,98539.88
2023-10-27T02:05:56.271Z,98542.97
2023-10-27T02:08:24.161Z,98550.13
2023-10-27T02:10:52.232Z,98540.81
2023-10-27T02:13:20.130Z,98516.81
2023-10-27T02:15:49.412Z,98541.59
2023-10-27T02:18:17.648Z,98535.19
2023-10-27T02:20:45.582Z,98537.28
2023-10-27T02:23:13.582Z,98522.97
2023-10-27T02:25:41.445Z,98542.28
2023-10-27T02:28:09.615Z,98535.72
2023-10-27T02:30:37.580Z,98536.78
2023-10-27T02:33:06.857Z,98526.66
2023-10-27T02:35:34.894Z,98526.13
2023-10-27T02:38:05.188Z,98529.75
2023-10-27T02:40:33.196Z,98532.66
2023-10-27T02:43:03.022Z,98532.31
2023-10-27T02:45:31.768Z,98535.84
2023-10-27T02:47:59.734Z,98535.47
2023-10-27T02:50:29.029Z,98530.38
2023-10-27T02:52:57.681Z,98524.03
2023-10-27T02:55:26.442Z,98532.56
2023-10-27T02:57:55.227Z,98514.16
2023-10-27T03:00:24.344Z,98523.25
2023-10-27T03:02:53.153Z,98518.28
2023-10-27T03:05:22.560Z,98522.31
2023-10-27T03:07:52.560Z,98519.19
2023-10-27T03:10:21.823Z,98515.53
2023-10-27T03:12:50.706Z,98512.28
2023-10-27T03:15:19.454Z,98517.25
2023-10-27T03:17:48.052Z,98512.94
2023-10-27T03:20:17.611Z,98515.44
2023-10-27T03:22:46.316Z,98515.66
2023-10-27T03:25:16.315Z,98520.59
2023-10-27T03:27:45.381Z,98513.56
2023-10-27T03:30:15.315Z,98513.63
2023-10-27T03:32:43.990Z,98530.81
2023-10-27T03:35:12.688Z,98523.13
2023-10-27T03:37:41.338Z,98527.28
2023-10-27T03:40:11.631Z,98523.09
2023-10-27T03:42:41.802Z,98516.63
2023-10-27T03:45:10.901Z,98517.19
2023-10-27T03:47:41.019Z,98504.16
2023-10-27T03:50:12.337Z,98511.50
2023-10-27T03:52:41.144Z,98506.41
2023-10-27T03:55:12.857Z,98514.09
2023-10-27T03:57:43.742Z,98505.78
2023-10-27T04:00:14.859Z,98497.34
2023-10-27T04:02:42.678Z,98495.81
2023-10-27T04:05:10.914Z,98501.38
2023-10-27T04:07:38.792Z,98499.91
2023-10-27T04:10:08.140Z,98498.25
2023-10-27T04:12:36.895Z,98499.38
2023-10-27T04:15:09.617Z,98496.00
2023-10-27T04:17:38.778Z,98484.88
2023-10-27T04:20:09.018Z,98484.06
2023-10-27T04:22:37.546Z,98478.47
2023-10-27T04:25:06.802Z,98483.97
2023-10-27T04:27:35.500Z,98485.28
2023-10-27T04:30:05.455Z,98481.91
2023-10-27T04:32:35.449Z,98470.56
2023-10-27T04:35:04.195Z,98476.16
2023-10-27T04:37:33.791Z,98475.03
2023-10-27T04:40:02.825Z,98470.81
2023-10-27T04:42:31.718Z,98470.94
2023-10-27T04:45:00.525Z,98451.50
2023-10-27T04:47:29.193Z,98449.19
2023-10-27T04:49:58.560Z,98460.34
2023-10-27T04:52:27.002Z,98446.34
2023-10-27T04:54:56.660Z,98458.16
2023-10-27T04:57:25.008Z,98459.59
2023-10-27T04:59:53.779Z,98452.50
2023-10-27T05:02:22.460Z,98468.47
2023-10-27T05:04:51.278Z,98464.31
2023-10-27T05:07:21.365Z,98466.84
2023-10-27T05:09:51.442Z,98459.31
2023-10-27T05:12:20.222Z,98453.41
2023-10-27T05:14:48.915Z,98457.13
2023-10-27T05:17:18.797Z,98453.09
2023-10-27T05:19:47.638Z,98458.78
2023-10-27T05:22:16.492Z,98460.44
2023-10-27T05:24:46.496Z,98454.63
2023-10-27T05:27:15.540Z,98436.63
2023-10-27T05:29:44.501Z,98434.78
2023-10-27T05:32:14.772Z,98439.78
2023-10-27T05:34:43.576Z,98448.03
2023-10-27T05:37:12.424Z,98438.22
2023-10-27T05:39:40.898Z,98437.69
2023-10-27T05:42:10.892Z,98446.25
2023-10-27T05:44:41.418Z,98442.97
2023-10-27T05:47:09.669Z,98445.81
2023-10-27T05:49:38.525Z,98447.75
2023-10-27T05:52:07.217Z,98441.06
2023-10-27T05:54:35.893Z,98451.84
2023-10-27T05:57:05.181Z,98453.25
2023-10-27T05:59:35.167Z,98456.53
2023-10-27T06:02:14.610Z,98449.00
2023-10-27T06:04:43.966Z,98455.88
2023-10-27T06:07:16.992Z,98462.50
2023-10-27T06:09:46.845Z,98464.84
2023-10-27T06:12:19.199Z,98469.53
2023-10-27T06:14:52.321Z,98474.09
2023-10-27T06:17:20.944Z,98479.06
2023-10-27T06:20:01.456Z,98473.75
2023-10-27T06:22:38.443Z,98478.97
2023-10-27T06:25:07.897Z,98485.38
2023-10-27T06:27:38.928Z,98476.53
2023-10-27T06:30:10.169Z,98477.25
2023-10-27T06:32:38.998Z,98466.31
2023-10-27T06:35:07.682Z,98460.88
2023-10-27T06:37:36.582Z,98480.78
2023-10-27T06:40:06.358Z,98469.56
2023-10-27T06:42:35.468Z,98466.88
2023-10-27T06:45:05.432Z,98472.78
2023-10-27T06:47:36.020Z,98476.69
2023-10-27T06:50:05.486Z,98473.84
2023-10-27T06:52:35.755Z,98472.75
2023-10-27T06:55:05.347Z,98447.97
2023-10-27T06:57:34.993Z,98463.38
2023-10-27T07:00:03.614Z,98475.34
2023-10-27T07:02:45.449Z,98459.84
2023-10-27T07:05:23.441Z,98475.47
2023-10-27T07:07:52.353Z,98457.03
2023-10-27T07:10:21.775Z,98482.69
2023-10-27T07:12:50.393Z,98481.16
2023-10-27T07:15:20.924Z,98458.97
2023-10-27T07:17:49.270Z,98481.78
2023-10-27T07:20:18.584Z,98470.78
2023-10-27T07:22:48.060Z,98471.25
2023-10-27T07:25:16.128Z,98486.28
2023-10-27T07:27:45.648Z,98487.72
2023-10-27T07:30:15.235Z,98478.72
2023-10-27T07:32:43.691Z,98471.03
2023-10-27T07:35:12.416Z,98478.56
2023-10-27T07:37:41.633Z,98488.16
2023-10-27T07:40:12.597Z,98477.28
2023-10-27T07:42:41.210Z,98482.72
2023-10-27T07:45:10.466Z,98480.84
2023-10-27T07:47:39.081Z,98461.91
2023-10-27T07:50:08.173Z,98476.25
2023-10-27T07:52:36.936Z,98475.63
2023-10-27T07:55:07.983Z,98479.41
2023-10-27T07:57:38.053Z,98465.22
2023-10-27T08:00:11.329Z,98488.75
2023-10-27T08:02:40.524Z,98486.88
2023-10-27T08:05:09.294Z,98489.09
2023-10-27T08:07:38.242Z,98496.91
2023-10-27T08:10:09.117Z,98485.13
2023-10-27T08:12:43.346Z,98477.06
2023-10-27T08:15:12.052Z,98486.97
2023-10-27T08:17:40.266Z,98486.88
2023-10-27T08:20:09.635Z,98489.09
2023-10-27T08:22:38.521Z,98484.19
2023-10-27T08:25:07.461Z,98484.19
2023-10-27T08:27:36.178Z,98487.59
2023-10-27T08:30:07.159Z,98487.34
2023-10-27T08:32:35.900Z,98485.00
2023-10-27T08:35:04.154Z,98487.47
2023-10-27T08:37:32.074Z,98493.38
2023-10-27T08:39:59.979Z,98490.31
2023-10-27T08:42:29.072Z,98487.47
2023-10-27T08:44:58.634Z,98489.50
2023-10-27T08:47:32.112Z,98491.97
2023-10-27T08:50:02.284Z,98485.69
2023-10-27T08:52:30.550Z,98484.41
2023-10-27T08:55:00.617Z,98488.63
2023-10-27T08:57:27.628Z,98480.72
2023-10-27T08:59:56.856Z,98483.56
2023-10-27T09:02:37.077Z,98474.56
2023-10-27T09:05:08.192Z,98476.47
2023-10-27T09:07:36.604Z,98482.72
2023-10-27T09:10:08.712Z,98475.50
2023-10-27T09:12:39.066Z,98474.22
2023-10-27T09:15:09.739Z,98467.94
2023-10-27T09:17:56.141Z,98485.78
2023-10-27T09:20:26.927Z,98492.06
2023-10-27T09:22:59.985Z,98473.25
2023-10-27T09:25:33.167Z,98479.66
2023-10-27T09:28:03.550Z,98484.97
2023-10-27T09:30:34.856Z,98486.84
2023-10-27T09:33:15.733Z,98480.69
2023-10-27T09:35:44.676Z,98488.84
2023-10-27T09:38:14.465Z,98496.50
2023-10-27T09:40:43.828Z,98498.66
2023-10-27T09:43:18.793Z,98496.16
2023-10-27T09:45:54.396Z,98495.19
2023-10-27T09:48:29.138Z,98492.59
2023-10-27T09:51:02.579Z,98488.09
2023-10-27T09:53:31.769Z,98489.53
2023-10-27T09:56:01.484Z,98496.59
2023-10-27T09:58:32.828Z,98490.41
2023-10-27T10:01:03.184Z,98493.97
2023-10-27T10:03:34.036Z,98474.59
2023-10-27T10:06:11.492Z,98493.13
2023-10-27T10:08:40.159Z,98492.03
2023-10-27T10:11:16.126Z,98487.53
2023-10-27T10:13:46.334Z,98492.03
2023-10-27T10:16:16.229Z,98491.66
2023-10-27T10:18:56.616Z,98486.44
2023-10-27T10:21:44.438Z,98494.50
2023-10-27T10:24:13.048Z,98496.84
2023-10-27T10:27:12.159Z,98493.78
2023-10-27T10:29:41.733Z,98491.06
2023-10-27T10:32:35.634Z,98496.34
2023-10-27T10:35:28.883Z,98478.41
2023-10-27T10:37:57.419Z,98487.38
2023-10-27T10:40:29.385Z,98493.50
2023-10-27T10:43:25.219Z,98496.72
2023-10-27T10:45:56.356Z,98494.81
2023-10-27T10:48:27.580Z,98479.41
2023-10-27T10:51:00.512Z,98495.28
2023-10-27T10:53:28.545Z,98488.19
2023-10-27T10:56:02.118Z,98475.03
2023-10-27T10:58:31.982Z,98490.91
2023-10-27T11:01:02.377Z,98481.75
2023-10-27T11:03:33.300Z,98472.88
2023-10-27T11:06:06.969Z,98484.56
2023-10-27T11:08:39.122Z,98486.06
2023-10-27T11:11:09.295Z,98482.75
2023-10-27T11:13:43.030Z,98484.41
2023-10-27T11:16:18.971Z,98482.50
2023-10-27T11:18:49.353Z,98468.19
2023-10-27T11:21:20.406Z,98491.44
2023-10-27T11:23:50.167Z,98480.13
2023-10-27T11:26:20.969Z,98477.16
2023-10-27T11:28:50.304Z,98480.69
2023-10-27T11:31:28.758Z,98472.63
2023-10-27T11:33:58.489Z,98476.41
2023-10-27T11:36:29.449Z,98465.59
2023-10-27T11:38:58.333Z,98456.41
2023-10-27T11:41:26.803Z,98450.69
2023-10-27T11:43:55.684Z,98471.19
2023-10-27T11:46:24.066Z,98468.75
2023-10-27T11:48:52.681Z,98473.69
2023-10-27T11:51:21.008Z,98470.72
2023-10-27T11:53:51.371Z,98463.44
2023-10-27T11:56:20.388Z,98465.09
2023-10-27T11:58:48.690Z,98457.72
2023-10-27T12:01:17.169Z,98459.41
2023-10-27T12:03:45.203Z,98462.19
2023-10-27T12:06:13.694Z,98454.59
2023-10-27T12:08:42.205Z,98467.09
2023-10-27T12:11:11.655Z,98463.50
2023-10-27T12:13:40.314Z,98463.50
2023-10-27T12:16:09.335Z,98455.00
2023-10-27T12:18:37.964Z,98464.09
2023-10-27T12:21:07.089Z,98469.38
2023-10-27T12:23:35.176Z,98464.59
2023-10-27T12:26:04.895Z,98459.13
2023-10-27T12:28:34.221Z,98460.59
2023-10-27T12:31:03.010Z,98466.16
2023-10-27T12:33:31.575Z,98470.84
2023-10-27T12:36:07.345Z,98468.84
2023-10-27T12:38:36.445Z,98467.44
2023-10-27T12:41:06.159Z,98455.06
2023-10-27T12:43:36.449Z,98465.81
2023-10-27T12:46:06.012Z,98464.47
2023-10-27T12:48:35.955Z,98458.53
2023-10-27T12:51:04.924Z,98462.00
2023-10-27T12:53:33.258Z,98452.81
2023-10-27T12:56:01.745Z,98465.22
2023-10-27T12:58:30.501Z,98443.25
2023-10-27T13:01:02.688Z,98467.84
2023-10-27T13:03:32.249Z,98469.19
2023-10-27T13:06:00.456Z,98449.19
2023-10-27T13:08:28.971Z,98462.34
2023-10-27T13:10:58.068Z,98458.44
2023-10-27T13:13:26.694Z,98451.94
2023-10-27T13:15:55.353Z,98453.13
2023-10-27T13:18:26.714Z,98458.75
2023-10-27T13:20:55.789Z,98457.09
2023-10-27T13:23:24.495Z,98455.53
2023-10-27T13:26:03.762Z,98455.03
2023-10-27T13:28:32.451Z,98459.31
2023-10-27T13:31:01.341Z,98457.22
2023-10-27T13:33:31.617Z,98446.13
2023-10-27T13:36:03.079Z,98447.03
2023-10-27T13:38:30.985Z,98447.03
2023-10-27T13:40:59.346Z,98459.50
2023-10-27T13:43:28.872Z,98456.53
2023-10-27T13:46:01.643Z,98460.97
2023-10-27T13:48:34.733Z,98457.22
2023-10-27T13:51:10.581Z,98461.03
2023-10-27T13:53:39.335Z,98463.44
2023-10-27T13:56:13.891Z,98458.31
2023-10-27T13:58:42.974Z,98459.72
2023-10-27T14:01:11.731Z,98459.91
2023-10-27T14:03:41.920Z,98451.19
2023-10-27T14:06:13.420Z,98454.72
2023-10-27T14:08:42.625Z,98459.09
2023-10-27T14:11:11.405Z,98468.94
2023-10-27T14:13:39.940Z,98455.16
2023-10-27T14:16:12.129Z,98463.66
2023-10-27T14:18:42.371Z,98463.50
2023-10-27T14:21:11.099Z,98449.56
2023-10-27T14:23:39.921Z,98471.13
2023-10-27T14:26:12.694Z,98476.56
2023-10-27T14:28:43.320Z,98462.66
2023-10-27T14:31:12.373Z,98469.03
2023-10-27T14:33:43.037Z,98460.03
2023-10-27T14:36:14.354Z,98471.75
2023-10-27T14:38:43.389Z,98464.91
2023-10-27T14:41:12.315Z,98467.41
2023-10-27T14:43:41.068Z,98464.44
2023-10-27T14:46:12.702Z,98463.94
2023-10-27T14:48:42.251Z,98473.09
2023-10-27T14:51:11.345Z,98473.00
2023-10-27T14:53:39.367Z,98476.78
2023-10-27T14:56:09.887Z,98474.44
2023-10-27T14:58:38.294Z,98477.75
2023-10-27T15:01:07.850Z,98445.81
2023-10-27T15:03:38.509Z,98486.00
2023-10-27T15:06:10.526Z,98481.75
2023-10-27T15:08:39.631Z,98481.44
2023-10-27T15:11:08.926Z,98487.94
2023-10-27T15:13:37.987Z,98493.16
2023-10-27T15:16:09.111Z,98489.44
2023-10-27T15:18:37.510Z,98488.88
2023-10-27T15:21:07.476Z,98486.72
2023-10-27T15:23:38.106Z,98494.25
2023-10-27T15:26:07.998Z,98484.22
2023-10-27T15:28:36.900Z,98496.50
2023-10-27T15:31:07.441Z,98484.22
2023-10-27T15:33:39.700Z,98488.38
2023-10-27T15:36:10.500Z,98487.41
2023-10-27T15:38:42.173Z,98481.53
2023-10-27T15:41:25.672Z,98488.63
2023-10-27T15:43:54.849Z,98496.25
2023-10-27T15:46:23.490Z,98488.72
2023-10-27T15:48:52.466Z,98482.59
2023-10-27T15:51:22.037Z,98485.25
2023-10-27T15:53:52.042Z,98492.75
2023-10-27T15:56:25.484Z,98483.59
2023-10-27T15:58:54.129Z,98482.28
2023-10-27T16:01:22.433Z,98491.53
2023-10-27T16:03:51.158Z,98491.03
2023-10-27T16:06:20.056Z,98488.88
2023-10-27T16:08:48.922Z,98495.66
2023-10-27T16:11:18.612Z,98484.09
2023-10-27T16:13:47.660Z,98494.75
2023-10-27T16:16:19.033Z,98486.09
2023-10-27T16:18:48.601Z,98491.03
2023-10-27T16:21:17.270Z,98498.03
2023-10-27T16:23:45.869Z,98486.78
2023-10-27T16:26:15.307Z,98501.34
2023-10-27T16:28:44.639Z,98504.78
2023-10-27T16:31:12.875Z,98502.53
2023-10-27T16:33:41.402Z,98511.81
2023-10-27T16:36:13.082Z,98510.22
2023-10-27T16:38:41.053Z,98519.16
2023-10-27T16:41:09.654Z,98518.22
2023-10-27T16:43:41.366Z,98522.16
2023-10-27T16:46:11.244Z,98523.34
2023-10-27T16:48:40.004Z,98519.31
2023-10-27T16:51:10.847Z,98522.53
2023-10-27T16:53:40.424Z,98524.16
2023-10-27T16:56:10.294Z,98525.84
2023-10-27T16:58:39.734Z,98515.44
2023-10-27T17:01:08.604Z,98528.44
2023-10-27T17:03:38.368Z,98532.75
2023-10-27T17:06:08.249Z,98537.94
2023-10-27T17:08:36.469Z,98535.88
2023-10-27T17:11:07.028Z,98534.00
2023-10-27T17:13:37.715Z,98543.72
2023-10-27T17:16:09.967Z,98519.00
2023-10-27T17:18:41.822Z,98549.28
2023-10-27T17:21:14.284Z,98545.63
2023-10-27T17:23:43.437Z,98542.69
2023-10-27T17:26:12.267Z,98547.66
2023-10-27T17:28:41.250Z,98549.09
2023-10-27T17:31:11.062Z,98547.41
2023-10-27T17:33:41.377Z,98556.06
2023-10-27T17:36:11.676Z,98562.81
2023-10-27T17:38:40.460Z,98556.63
2023-10-27T17:41:10.081Z,98554.41
2023-10-27T17:43:39.765Z,98559.50
2023-10-27T17:46:09.074Z,98564.97
2023-10-27T17:48:37.553Z,98569.94
2023-10-27T17:51:09.307Z,98558.81
2023-10-27T17:53:39.878Z,98572.78
2023-10-27T17:56:09.629Z,98586.84
2023-10-27T17:58:38.712Z,98580.81
2023-10-27T18:01:08.941Z,98586.41
2023-10-27T18:03:38.636Z,98582.28
2023-10-27T18:06:13.403Z,98591.63
2023-10-27T18:08:42.422Z,98587.31
2023-10-27T18:11:11.200Z,98589.84
2023-10-27T18:13:40.374Z,98593.16
2023-10-27T18:16:09.497Z,98596.94
2023-10-27T18:18:37.984Z,98605.72
2023-10-27T18:21:11.991Z,98594.34
2023-10-27T18:23:40.328Z,98596.56
2023-10-27T18:26:15.443Z,98594.94
2023-10-27T18:28:43.533Z,98605.34
2023-10-27T18:31:11.650Z,98589.38
2023-10-27T18:33:39.873Z,98610.31
2023-10-27T18:36:14.792Z,98604.75
2023-10-27T18:38:44.638Z,98605.91
2023-10-27T18:41:12.933Z,98601.78
2023-10-27T18:43:44.967Z,98602.63
2023-10-27T18:46:15.166Z,98607.22
2023-10-27T18:48:44.499Z,98607.47
2023-10-27T18:51:14.925Z,98609.38
2023-10-27T18:53:44.085Z,98609.03
2023-10-27T18:56:15.078Z,98612.94
2023-10-27T18:58:45.526Z,98622.88
2023-10-27T19:01:15.566Z,98623.69
2023-10-27T19:03:48.290Z,98618.25
2023-10-27T19:06:21.787Z,98622.63
2023-10-27T19:08:50.905Z,98631.53
2023-10-27T19:11:21.779Z,98629.88
2023-10-27T19:13:50.326Z,98635.91
2023-10-27T19:16:19.169Z,98643.50
2023-10-27T19:18:49.764Z,98645.28
2023-10-27T19:21:20.126Z,98636.03
2023-10-27T19:23:52.262Z,98658.31
2023-10-27T19:26:22.666Z,98658.44
2023-10-27T19:28:53.340Z,98661.03
2023-10-27T19:31:23.580Z,98652.63
2023-10-27T19:33:52.535Z,98668.84
2023-10-27T19:36:24.611Z,98658.44
2023-10-27T19:38:54.784Z,98667.56
2023-10-27T19:41:26.819Z,98673.00
2023-10-27T19:43:56.871Z,98669.69
2023-10-27T19:46:27.472Z,98675.34
2023-10-27T19:49:00.811Z,98666.97
2023-10-27T19:51:32.243Z,98676.56
2023-10-27T19:54:01.901Z,98676.56
2023-10-27T19:56:31.202Z,98673.63
2023-10-27T19:59:01.489Z,98686.25
2023-10-27T20:01:32.006Z,98679.88
2023-10-27T20:04:03.367Z,98674.41
2023-10-27T20:06:34.672Z,98683.75
2023-10-27T20:09:07.345Z,98687.09
2023-10-27T20:11:38.292Z,98684.47
2023-10-27T20:14:08.813Z,98687.09
2023-10-27T20:16:40.974Z,98686.63
2023-10-27T20:19:10.796Z,98693.81
2023-10-27T20:21:44.122Z,98700.34
2023-10-27T20:24:15.015Z,98700.25
2023-10-27T20:26:45.147Z,98707.13
2023-10-27T20:29:17.624Z,98702.16
2023-10-27T20:31:48.236Z,98701.56
2023-10-27T20:34:17.595Z,98709.84
2023-10-27T20:36:47.568Z,98710.56
2023-10-27T20:39:16.496Z,98703.81
2023-10-27T20:41:45.467Z,98703.81
2023-10-27T20:44:14.444Z,98697.06
2023-10-27T20:46:43.377Z,98701.56
2023-10-27T20:49:12.203Z,98707.13
2023-10-27T20:51:41.084Z,98710.91
2023-10-27T20:54:11.289Z,98711.16
2023-10-27T20:56:40.920Z,98714.97
2023-10-27T20:59:09.872Z,98722.53
2023-10-27T21:01:38.753Z,98721.31
2023-10-27T21:04:10.358Z,98721.94
2023-10-27T21:06:40.358Z,98732.56
2023-10-27T21:09:10.644Z,98738.63
2023-10-27T21:11:39.651Z,98740.75
2023-10-27T21:14:08.963Z,98743.13
2023-10-27T21:16:37.751Z,98731.75
2023-10-27T21:19:06.834Z,98738.63
2023-10-27T21:21:35.748Z,98737.41
2023-10-27T21:24:04.539Z,98736.25
2023-10-27T21:26:34.605Z,98735.16
2023-10-27T21:29:03.291Z,98721.19
2023-10-27T21:31:32.084Z,98744.41
2023-10-27T21:34:00.789Z,98733.75
2023-10-27T21:36:30.054Z,98727.94
2023-10-27T21:38:59.131Z,98744.88
2023-10-27T21:41:28.260Z,98746.31
2023-10-27T21:43:58.928Z,98749.03
2023-10-27T21:46:28.188Z,98742.63
2023-10-27T21:48:57.071Z,98751.28
2023-10-27T21:51:25.740Z,98748.69
2023-10-27T21:53:54.503Z,98759.84
2023-10-27T21:56:23.223Z,98754.03
2023-10-27T21:58:52.054Z,98751.09
2023-10-27T22:01:24.333Z,98752.59
2023-10-27T22:03:58.720Z,98759.97
2023-10-27T22:06:27.424Z,98747.88
2023-10-27T22:08:56.004Z,98767.09
2023-10-27T22:11:24.122Z,98767.91
2023-10-27T22:13:52.257Z,98765.66
2023-10-27T22:16:22.352Z,98774.03
2023-10-27T22:18:51.178Z,98776.16
2023-10-27T22:21:19.871Z,98757.28
2023-10-27T22:23:48.502Z,98768.00
2023-10-27T22:26:18.170Z,98773.81
2023-10-27T22:28:47.158Z,98766.59
2023-10-27T22:31:15.781Z,98766.38
2023-10-27T22:33:45.761Z,98771.69
2023-10-27T22:36:15.049Z,98774.06
2023-10-27T22:38:43.511Z,98771.56
2023-10-27T22:41:12.923Z,98783.28
2023-10-27T22:43:42.806Z,98801.84
2023-10-27T22:46:11.093Z,98800.66
2023-10-27T22:48:39.559Z,98795.00
2023-10-27T22:51:11.015Z,98791.91
2023-10-27T22:53:40.660Z,98803.72
2023-10-27T22:56:10.184Z,98813.78
2023-10-27T22:58:38.424Z,98811.66
2023-10-27T23:01:11.202Z,98807.41
2023-10-27T23:03:40.401Z,98801.59
2023-10-27T23:06:12.560Z,98803.03
2023-10-27T23:08:41.946Z,98809.09
2023-10-27T23:11:11.044Z,98804.78
2023-10-27T23:13:40.665Z,98811.00
2023-10-27T23:16:10.770Z,98799.13
2023-10-27T23:18:42.564Z,98812.63
2023-10-27T23:21:14.299Z,98810.38
2023-10-27T23:23:44.687Z,98810.84
2023-10-27T23:26:13.695Z,98798.78
2023-10-27T23:28:42.972Z,98793.78
2023-10-27T23:31:13.526Z,98800.09
2023-10-27T23:33:42.371Z,98800.66
2023-10-27T23:36:17.860Z,98802.44
2023-10-27T23:38:47.547Z,98805.66
2023-10-27T23:41:16.233Z,98808.22
2023-10-27T23:43:45.115Z,98807.53
2023-10-27T23:46:15.507Z,98806.59
2023-10-27T23:48:44.815Z,98810.97
2023-10-27T23:51:14.878Z,98804.31
2023-10-27T23:53:43.514Z,98779.44
2023-10-27T23:56:12.943Z,98798.03
2023-10-27T23:58:41.274Z,98809.13
